sensor_id;sensor_type;location;lat;lon;timestamp;P1;durP1;ratioP1;P2;durP2;ratioP2
63087;SDS011;49173;43.164;27.786;2023-03-31T00:01:48;14.65;;;6.80;;
63087;SDS011;49173;43.164;27.786;2023-03-31T00:04:17;13.23;;;7.28;;
63087;SDS011;49173;43.164;27.786;2023-03-31T00:06:43;14.13;;;7.53;;
63087;SDS011;49173;43.164;27.786;2023-03-31T00:09:15;26.65;;;13.98;;
63087;SDS011;49173;43.164;27.786;2023-03-31T00:11:43;17.10;;;10.10;;
63087;SDS011;49173;43.164;27.786;2023-03-31T00:14:10;23.30;;;13.43;;
63087;SDS011;49173;43.164;27.786;2023-03-31T00:16:36;21.15;;;13.15;;
63087;SDS011;49173;43.164;27.786;2023-03-31T00:21:34;16.63;;;9.70;;
63087;SDS011;49173;43.164;27.786;2023-03-31T00:24:05;13.75;;;8.40;;
63087;SDS011;49173;43.164;27.786;2023-03-31T00:26:32;12.00;;;7.57;;
63087;SDS011;49173;43.164;27.786;2023-03-31T00:28:59;15.75;;;8.45;;
63087;SDS011;49173;43.164;27.786;2023-03-31T00:31:26;13.20;;;7.80;;
63087;SDS011;49173;43.164;27.786;2023-03-31T00:33:53;15.23;;;7.57;;
63087;SDS011;49173;43.164;27.786;2023-03-31T00:36:20;12.25;;;7.50;;
63087;SDS011;49173;43.164;27.786;2023-03-31T00:38:58;11.88;;;5.75;;
63087;SDS011;49173;43.164;27.786;2023-03-31T00:41:29;10.95;;;6.80;;
63087;SDS011;49173;43.164;27.786;2023-03-31T00:44:06;12.13;;;7.82;;
63087;SDS011;49173;43.164;27.786;2023-03-31T00:46:54;13.40;;;7.20;;
63087;SDS011;49173;43.164;27.786;2023-03-31T00:49:33;8.25;;;5.93;;
63087;SDS011;49173;43.164;27.786;2023-03-31T00:52:17;11.13;;;6.15;;
63087;SDS011;49173;43.164;27.786;2023-03-31T00:54:46;12.85;;;5.85;;
63087;SDS011;49173;43.164;27.786;2023-03-31T00:57:16;11.18;;;5.50;;
63087;SDS011;49173;43.164;27.786;2023-03-31T00:59:43;11.07;;;5.90;;
63087;SDS011;49173;43.164;27.786;2023-03-31T01:02:14;11.25;;;6.18;;
63087;SDS011;49173;43.164;27.786;2023-03-31T01:04:42;18.02;;;9.93;;
63087;SDS011;49173;43.164;27.786;2023-03-31T01:09:47;10.40;;;6.25;;
63087;SDS011;49173;43.164;27.786;2023-03-31T01:12:15;11.70;;;6.10;;
63087;SDS011;49173;43.164;27.786;2023-03-31T01:14:43;9.90;;;6.07;;
63087;SDS011;49173;43.164;27.786;2023-03-31T01:17:09;8.27;;;5.32;;
63087;SDS011;49173;43.164;27.786;2023-03-31T01:45:25;5.95;;;3.33;;
63087;SDS011;49173;43.164;27.786;2023-03-31T01:48:00;6.80;;;4.05;;
63087;SDS011;49173;43.164;27.786;2023-03-31T01:53:10;9.02;;;6.50;;
63087;SDS011;49173;43.164;27.786;2023-03-31T01:56:10;7.22;;;6.18;;
63087;SDS011;49173;43.164;27.786;2023-03-31T01:58:43;5.03;;;4.50;;
63087;SDS011;49173;43.164;27.786;2023-03-31T02:01:31;4.88;;;3.38;;
63087;SDS011;49173;43.164;27.786;2023-03-31T02:04:04;5.30;;;3.03;;
63087;SDS011;49173;43.164;27.786;2023-03-31T02:06:37;6.25;;;3.05;;
63087;SDS011;49173;43.164;27.786;2023-03-31T02:09:09;5.80;;;3.13;;
63087;SDS011;49173;43.164;27.786;2023-03-31T02:11:40;4.97;;;3.13;;
63087;SDS011;49173;43.164;27.786;2023-03-31T02:14:09;6.43;;;3.50;;
63087;SDS011;49173;43.164;27.786;2023-03-31T02:16:39;5.35;;;3.63;;
63087;SDS011;49173;43.164;27.786;2023-03-31T02:19:11;4.97;;;2.83;;
63087;SDS011;49173;43.164;27.786;2023-03-31T02:21:43;6.47;;;3.78;;
63087;SDS011;49173;43.164;27.786;2023-03-31T02:24:14;8.50;;;3.78;;
63087;SDS011;49173;43.164;27.786;2023-03-31T02:27:05;6.28;;;3.90;;
63087;SDS011;49173;43.164;27.786;2023-03-31T02:29:32;7.25;;;4.00;;
63087;SDS011;49173;43.164;27.786;2023-03-31T02:34:33;14.45;;;7.30;;
63087;SDS011;49173;43.164;27.786;2023-03-31T02:36:59;13.43;;;7.82;;
63087;SDS011;49173;43.164;27.786;2023-03-31T02:39:27;11.35;;;7.28;;
63087;SDS011;49173;43.164;27.786;2023-03-31T02:41:58;14.32;;;7.78;;
63087;SDS011;49173;43.164;27.786;2023-03-31T02:44:26;12.98;;;7.30;;
63087;SDS011;49173;43.164;27.786;2023-03-31T02:46:52;9.10;;;5.18;;
63087;SDS011;49173;43.164;27.786;2023-03-31T02:49:18;7.95;;;4.22;;
63087;SDS011;49173;43.164;27.786;2023-03-31T02:52:08;7.53;;;3.97;;
63087;SDS011;49173;43.164;27.786;2023-03-31T02:57:48;7.63;;;3.97;;
63087;SDS011;49173;43.164;27.786;2023-03-31T03:06:22;9.05;;;5.68;;
63087;SDS011;49173;43.164;27.786;2023-03-31T03:11:45;10.35;;;6.70;;
63087;SDS011;49173;43.164;27.786;2023-03-31T03:17:26;11.43;;;6.55;;
63087;SDS011;49173;43.164;27.786;2023-03-31T03:19:58;8.32;;;5.57;;
63087;SDS011;49173;43.164;27.786;2023-03-31T03:22:25;12.17;;;6.63;;
63087;SDS011;49173;43.164;27.786;2023-03-31T03:24:51;9.70;;;6.32;;
63087;SDS011;49173;43.164;27.786;2023-03-31T03:27:18;11.15;;;7.03;;
63087;SDS011;49173;43.164;27.786;2023-03-31T03:29:46;12.30;;;7.03;;
63087;SDS011;49173;43.164;27.786;2023-03-31T03:32:12;16.27;;;8.55;;
63087;SDS011;49173;43.164;27.786;2023-03-31T03:34:38;17.45;;;8.45;;
63087;SDS011;49173;43.164;27.786;2023-03-31T03:37:04;15.43;;;8.52;;
63087;SDS011;49173;43.164;27.786;2023-03-31T03:39:33;12.60;;;8.30;;
63087;SDS011;49173;43.164;27.786;2023-03-31T03:42:00;11.05;;;6.32;;
63087;SDS011;49173;43.164;27.786;2023-03-31T03:44:26;14.63;;;7.05;;
63087;SDS011;49173;43.164;27.786;2023-03-31T03:46:53;13.30;;;8.10;;
63087;SDS011;49173;43.164;27.786;2023-03-31T03:49:20;14.63;;;7.60;;
63087;SDS011;49173;43.164;27.786;2023-03-31T03:51:47;16.45;;;7.90;;
63087;SDS011;49173;43.164;27.786;2023-03-31T03:54:15;13.52;;;8.13;;
63087;SDS011;49173;43.164;27.786;2023-03-31T03:56:42;11.48;;;7.97;;
63087;SDS011;49173;43.164;27.786;2023-03-31T03:59:09;13.98;;;8.85;;
63087;SDS011;49173;43.164;27.786;2023-03-31T04:01:37;15.18;;;9.30;;
63087;SDS011;49173;43.164;27.786;2023-03-31T04:04:03;12.00;;;9.90;;
63087;SDS011;49173;43.164;27.786;2023-03-31T04:06:31;11.35;;;9.07;;
63087;SDS011;49173;43.164;27.786;2023-03-31T04:08:58;14.20;;;8.82;;
63087;SDS011;49173;43.164;27.786;2023-03-31T04:11:26;23.77;;;14.88;;
63087;SDS011;49173;43.164;27.786;2023-03-31T04:13:53;20.45;;;12.95;;
63087;SDS011;49173;43.164;27.786;2023-03-31T04:16:20;23.15;;;13.52;;
63087;SDS011;49173;43.164;27.786;2023-03-31T04:18:53;16.05;;;10.55;;
63087;SDS011;49173;43.164;27.786;2023-03-31T04:21:25;11.27;;;6.78;;
63087;SDS011;49173;43.164;27.786;2023-03-31T04:23:51;8.15;;;5.53;;
63087;SDS011;49173;43.164;27.786;2023-03-31T04:26:27;9.93;;;6.00;;
63087;SDS011;49173;43.164;27.786;2023-03-31T04:29:07;15.60;;;6.63;;
63087;SDS011;49173;43.164;27.786;2023-03-31T04:31:34;13.77;;;7.72;;
63087;SDS011;49173;43.164;27.786;2023-03-31T04:34:03;11.55;;;8.07;;
63087;SDS011;49173;43.164;27.786;2023-03-31T04:36:32;12.82;;;9.48;;
63087;SDS011;49173;43.164;27.786;2023-03-31T04:38:59;13.95;;;10.43;;
63087;SDS011;49173;43.164;27.786;2023-03-31T04:41:26;12.73;;;9.02;;
63087;SDS011;49173;43.164;27.786;2023-03-31T04:43:52;12.75;;;7.90;;
63087;SDS011;49173;43.164;27.786;2023-03-31T04:46:19;15.68;;;10.43;;
63087;SDS011;49173;43.164;27.786;2023-03-31T04:48:46;12.02;;;7.97;;
63087;SDS011;49173;43.164;27.786;2023-03-31T04:51:12;10.85;;;8.70;;
63087;SDS011;49173;43.164;27.786;2023-03-31T04:53:42;12.07;;;8.88;;
63087;SDS011;49173;43.164;27.786;2023-03-31T04:56:10;11.27;;;7.93;;
63087;SDS011;49173;43.164;27.786;2023-03-31T04:58:38;13.95;;;8.88;;
63087;SDS011;49173;43.164;27.786;2023-03-31T05:01:06;18.15;;;12.57;;
63087;SDS011;49173;43.164;27.786;2023-03-31T05:03:33;23.70;;;16.75;;
63087;SDS011;49173;43.164;27.786;2023-03-31T05:06:02;16.52;;;12.45;;
63087;SDS011;49173;43.164;27.786;2023-03-31T05:08:30;12.35;;;8.55;;
63087;SDS011;49173;43.164;27.786;2023-03-31T05:10:56;12.32;;;9.05;;
63087;SDS011;49173;43.164;27.786;2023-03-31T05:13:22;11.95;;;8.55;;
63087;SDS011;49173;43.164;27.786;2023-03-31T05:15:51;17.90;;;12.27;;
63087;SDS011;49173;43.164;27.786;2023-03-31T05:18:19;14.75;;;9.93;;
63087;SDS011;49173;43.164;27.786;2023-03-31T05:20:46;17.48;;;10.13;;
63087;SDS011;49173;43.164;27.786;2023-03-31T05:23:13;14.73;;;7.90;;
63087;SDS011;49173;43.164;27.786;2023-03-31T05:25:40;12.70;;;7.50;;
63087;SDS011;49173;43.164;27.786;2023-03-31T05:28:07;30.35;;;13.73;;
63087;SDS011;49173;43.164;27.786;2023-03-31T05:30:39;41.33;;;17.77;;
63087;SDS011;49173;43.164;27.786;2023-03-31T05:33:06;28.63;;;12.70;;
63087;SDS011;49173;43.164;27.786;2023-03-31T05:35:34;25.02;;;18.33;;
63087;SDS011;49173;43.164;27.786;2023-03-31T05:38:00;26.52;;;22.55;;
63087;SDS011;49173;43.164;27.786;2023-03-31T05:40:30;24.58;;;19.15;;
63087;SDS011;49173;43.164;27.786;2023-03-31T05:42:58;19.55;;;14.77;;
63087;SDS011;49173;43.164;27.786;2023-03-31T05:45:24;19.55;;;10.63;;
63087;SDS011;49173;43.164;27.786;2023-03-31T05:47:50;12.48;;;7.78;;
63087;SDS011;49173;43.164;27.786;2023-03-31T05:50:17;15.40;;;7.78;;
63087;SDS011;49173;43.164;27.786;2023-03-31T05:52:43;12.07;;;8.23;;
63087;SDS011;49173;43.164;27.786;2023-03-31T05:55:09;10.48;;;5.45;;
63087;SDS011;49173;43.164;27.786;2023-03-31T05:57:36;7.63;;;4.95;;
63087;SDS011;49173;43.164;27.786;2023-03-31T06:00:03;6.53;;;5.05;;
63087;SDS011;49173;43.164;27.786;2023-03-31T06:02:31;8.70;;;5.60;;
63087;SDS011;49173;43.164;27.786;2023-03-31T06:04:58;7.78;;;5.28;;
63087;SDS011;49173;43.164;27.786;2023-03-31T06:07:24;9.38;;;5.10;;
63087;SDS011;49173;43.164;27.786;2023-03-31T06:09:53;16.83;;;7.38;;
63087;SDS011;49173;43.164;27.786;2023-03-31T06:12:20;45.67;;;16.48;;
63087;SDS011;49173;43.164;27.786;2023-03-31T06:14:47;20.42;;;10.10;;
63087;SDS011;49173;43.164;27.786;2023-03-31T06:17:13;10.98;;;5.95;;
63087;SDS011;49173;43.164;27.786;2023-03-31T06:19:42;8.10;;;5.40;;
63087;SDS011;49173;43.164;27.786;2023-03-31T06:22:09;11.82;;;7.75;;
63087;SDS011;49173;43.164;27.786;2023-03-31T06:24:38;15.93;;;11.35;;
63087;SDS011;49173;43.164;27.786;2023-03-31T06:27:05;12.77;;;9.23;;
63087;SDS011;49173;43.164;27.786;2023-03-31T06:29:31;15.02;;;9.70;;
63087;SDS011;49173;43.164;27.786;2023-03-31T06:32:00;13.40;;;8.23;;
63087;SDS011;49173;43.164;27.786;2023-03-31T06:34:29;13.13;;;7.60;;
63087;SDS011;49173;43.164;27.786;2023-03-31T06:36:57;10.80;;;7.82;;
63087;SDS011;49173;43.164;27.786;2023-03-31T06:39:24;12.07;;;8.75;;
63087;SDS011;49173;43.164;27.786;2023-03-31T06:41:51;13.75;;;7.97;;
63087;SDS011;49173;43.164;27.786;2023-03-31T06:44:18;16.17;;;7.47;;
63087;SDS011;49173;43.164;27.786;2023-03-31T06:46:48;9.77;;;6.78;;
63087;SDS011;49173;43.164;27.786;2023-03-31T06:49:17;13.82;;;7.70;;
63087;SDS011;49173;43.164;27.786;2023-03-31T06:51:45;16.13;;;10.25;;
63087;SDS011;49173;43.164;27.786;2023-03-31T06:54:12;16.75;;;8.77;;
63087;SDS011;49173;43.164;27.786;2023-03-31T06:56:38;16.55;;;8.55;;
63087;SDS011;49173;43.164;27.786;2023-03-31T06:59:07;13.25;;;7.43;;
63087;SDS011;49173;43.164;27.786;2023-03-31T07:01:36;12.13;;;7.55;;
63087;SDS011;49173;43.164;27.786;2023-03-31T07:04:03;10.77;;;7.55;;
63087;SDS011;49173;43.164;27.786;2023-03-31T07:09:00;13.23;;;7.82;;
63087;SDS011;49173;43.164;27.786;2023-03-31T07:11:31;15.43;;;11.23;;
63087;SDS011;49173;43.164;27.786;2023-03-31T07:13:57;16.95;;;10.68;;
63087;SDS011;49173;43.164;27.786;2023-03-31T07:16:24;12.40;;;7.43;;
63087;SDS011;49173;43.164;27.786;2023-03-31T07:18:50;13.07;;;8.35;;
63087;SDS011;49173;43.164;27.786;2023-03-31T07:21:19;13.77;;;6.82;;
63087;SDS011;49173;43.164;27.786;2023-03-31T07:23:46;7.38;;;5.05;;
63087;SDS011;49173;43.164;27.786;2023-03-31T07:26:13;6.85;;;4.07;;
63087;SDS011;49173;43.164;27.786;2023-03-31T07:28:40;7.28;;;3.97;;
63087;SDS011;49173;43.164;27.786;2023-03-31T07:31:09;8.23;;;4.43;;
63087;SDS011;49173;43.164;27.786;2023-03-31T07:33:37;7.22;;;4.82;;
63087;SDS011;49173;43.164;27.786;2023-03-31T07:36:04;7.25;;;5.00;;
63087;SDS011;49173;43.164;27.786;2023-03-31T07:38:31;8.82;;;5.10;;
63087;SDS011;49173;43.164;27.786;2023-03-31T07:40:57;7.28;;;5.15;;
63087;SDS011;49173;43.164;27.786;2023-03-31T07:43:23;10.02;;;5.30;;
63087;SDS011;49173;43.164;27.786;2023-03-31T07:45:53;11.45;;;7.93;;
63087;SDS011;49173;43.164;27.786;2023-03-31T07:48:20;12.15;;;8.95;;
63087;SDS011;49173;43.164;27.786;2023-03-31T07:50:49;14.77;;;10.98;;
63087;SDS011;49173;43.164;27.786;2023-03-31T07:53:17;24.08;;;11.13;;
63087;SDS011;49173;43.164;27.786;2023-03-31T07:55:47;15.45;;;10.23;;
63087;SDS011;49173;43.164;27.786;2023-03-31T07:58:15;19.08;;;10.00;;
63087;SDS011;49173;43.164;27.786;2023-03-31T08:00:41;15.88;;;9.50;;
63087;SDS011;49173;43.164;27.786;2023-03-31T08:03:07;19.48;;;12.10;;
63087;SDS011;49173;43.164;27.786;2023-03-31T08:05:35;14.32;;;10.20;;
63087;SDS011;49173;43.164;27.786;2023-03-31T08:08:03;13.95;;;9.70;;
63087;SDS011;49173;43.164;27.786;2023-03-31T08:10:29;12.10;;;8.68;;
63087;SDS011;49173;43.164;27.786;2023-03-31T08:12:56;13.00;;;8.48;;
63087;SDS011;49173;43.164;27.786;2023-03-31T08:15:27;14.40;;;8.70;;
63087;SDS011;49173;43.164;27.786;2023-03-31T08:17:53;13.77;;;9.73;;
63087;SDS011;49173;43.164;27.786;2023-03-31T08:20:21;13.02;;;8.48;;
63087;SDS011;49173;43.164;27.786;2023-03-31T08:22:48;14.65;;;8.60;;
63087;SDS011;49173;43.164;27.786;2023-03-31T08:25:15;21.45;;;8.63;;
63087;SDS011;49173;43.164;27.786;2023-03-31T08:27:41;15.73;;;8.35;;
63087;SDS011;49173;43.164;27.786;2023-03-31T08:30:08;10.48;;;7.07;;
63087;SDS011;49173;43.164;27.786;2023-03-31T08:32:36;13.60;;;7.88;;
63087;SDS011;49173;43.164;27.786;2023-03-31T08:35:03;14.30;;;8.65;;
63087;SDS011;49173;43.164;27.786;2023-03-31T08:37:29;13.35;;;9.30;;
63087;SDS011;49173;43.164;27.786;2023-03-31T08:39:56;12.20;;;8.20;;
63087;SDS011;49173;43.164;27.786;2023-03-31T08:47:32;14.50;;;9.57;;
63087;SDS011;49173;43.164;27.786;2023-03-31T08:50:06;18.23;;;10.57;;
63087;SDS011;49173;43.164;27.786;2023-03-31T08:52:47;17.70;;;9.55;;
63087;SDS011;49173;43.164;27.786;2023-03-31T08:55:39;15.00;;;9.65;;
63087;SDS011;49173;43.164;27.786;2023-03-31T08:58:26;12.98;;;9.40;;
63087;SDS011;49173;43.164;27.786;2023-03-31T09:01:40;15.90;;;10.75;;
63087;SDS011;49173;43.164;27.786;2023-03-31T09:09:06;15.68;;;10.98;;
63087;SDS011;49173;43.164;27.786;2023-03-31T09:11:45;17.42;;;10.13;;
63087;SDS011;49173;43.164;27.786;2023-03-31T09:14:37;12.13;;;8.45;;
63087;SDS011;49173;43.164;27.786;2023-03-31T09:19:59;13.15;;;8.27;;
63087;SDS011;49173;43.164;27.786;2023-03-31T09:22:46;13.57;;;9.70;;
63087;SDS011;49173;43.164;27.786;2023-03-31T09:25:37;13.93;;;8.82;;
63087;SDS011;49173;43.164;27.786;2023-03-31T09:28:11;13.93;;;9.27;;
63087;SDS011;49173;43.164;27.786;2023-03-31T09:30:44;13.98;;;9.80;;
63087;SDS011;49173;43.164;27.786;2023-03-31T09:33:16;12.70;;;9.10;;
63087;SDS011;49173;43.164;27.786;2023-03-31T09:35:59;15.15;;;11.27;;
63087;SDS011;49173;43.164;27.786;2023-03-31T09:38:33;13.32;;;9.70;;
63087;SDS011;49173;43.164;27.786;2023-03-31T09:41:00;11.05;;;7.90;;
63087;SDS011;49173;43.164;27.786;2023-03-31T09:43:30;14.73;;;8.35;;
63087;SDS011;49173;43.164;27.786;2023-03-31T09:46:01;14.60;;;9.63;;
63087;SDS011;49173;43.164;27.786;2023-03-31T09:48:29;16.88;;;10.52;;
63087;SDS011;49173;43.164;27.786;2023-03-31T09:51:01;14.43;;;10.15;;
63087;SDS011;49173;43.164;27.786;2023-03-31T09:56:01;12.25;;;8.20;;
63087;SDS011;49173;43.164;27.786;2023-03-31T09:58:30;12.65;;;7.90;;
63087;SDS011;49173;43.164;27.786;2023-03-31T10:01:06;12.05;;;7.82;;
63087;SDS011;49173;43.164;27.786;2023-03-31T10:03:46;13.63;;;10.27;;
63087;SDS011;49173;43.164;27.786;2023-03-31T10:06:18;17.45;;;10.38;;
63087;SDS011;49173;43.164;27.786;2023-03-31T10:09:01;15.55;;;9.55;;
63087;SDS011;49173;43.164;27.786;2023-03-31T10:11:30;11.65;;;9.10;;
63087;SDS011;49173;43.164;27.786;2023-03-31T10:14:02;17.73;;;9.35;;
63087;SDS011;49173;43.164;27.786;2023-03-31T10:16:57;16.60;;;10.02;;
63087;SDS011;49173;43.164;27.786;2023-03-31T10:19:33;10.50;;;8.18;;
63087;SDS011;49173;43.164;27.786;2023-03-31T10:22:03;12.88;;;9.10;;
63087;SDS011;49173;43.164;27.786;2023-03-31T10:24:38;10.82;;;9.05;;
63087;SDS011;49173;43.164;27.786;2023-03-31T10:29:47;22.08;;;12.63;;
63087;SDS011;49173;43.164;27.786;2023-03-31T10:34:54;25.45;;;16.05;;
63087;SDS011;49173;43.164;27.786;2023-03-31T10:37:29;12.60;;;9.25;;
63087;SDS011;49173;43.164;27.786;2023-03-31T10:39:59;9.68;;;6.40;;
63087;SDS011;49173;43.164;27.786;2023-03-31T10:42:33;13.40;;;9.20;;
63087;SDS011;49173;43.164;27.786;2023-03-31T10:47:55;15.07;;;10.25;;
63087;SDS011;49173;43.164;27.786;2023-03-31T10:50:29;13.43;;;6.82;;
63087;SDS011;49173;43.164;27.786;2023-03-31T10:53:05;10.52;;;7.32;;
63087;SDS011;49173;43.164;27.786;2023-03-31T11:00:56;11.43;;;8.15;;
63087;SDS011;49173;43.164;27.786;2023-03-31T11:06:32;17.85;;;11.13;;
63087;SDS011;49173;43.164;27.786;2023-03-31T11:09:25;15.68;;;11.45;;
63087;SDS011;49173;43.164;27.786;2023-03-31T11:15:08;11.48;;;9.02;;
63087;SDS011;49173;43.164;27.786;2023-03-31T11:18:00;17.70;;;12.85;;
63087;SDS011;49173;43.164;27.786;2023-03-31T11:26:09;20.20;;;12.07;;
63087;SDS011;49173;43.164;27.786;2023-03-31T11:28:49;16.00;;;10.90;;
63087;SDS011;49173;43.164;27.786;2023-03-31T11:33:59;17.33;;;13.35;;
63087;SDS011;49173;43.164;27.786;2023-03-31T11:39:20;16.67;;;11.65;;
63087;SDS011;49173;43.164;27.786;2023-03-31T11:41:58;15.15;;;9.93;;
63087;SDS011;49173;43.164;27.786;2023-03-31T11:44:37;14.55;;;10.10;;
63087;SDS011;49173;43.164;27.786;2023-03-31T11:47:15;13.90;;;10.05;;
63087;SDS011;49173;43.164;27.786;2023-03-31T11:49:58;16.25;;;11.73;;
63087;SDS011;49173;43.164;27.786;2023-03-31T11:52:55;16.27;;;12.43;;
63087;SDS011;49173;43.164;27.786;2023-03-31T11:55:29;18.67;;;11.82;;
63087;SDS011;49173;43.164;27.786;2023-03-31T11:58:04;16.65;;;12.52;;
63087;SDS011;49173;43.164;27.786;2023-03-31T12:03:10;15.85;;;11.55;;
63087;SDS011;49173;43.164;27.786;2023-03-31T12:05:43;17.15;;;11.88;;
63087;SDS011;49173;43.164;27.786;2023-03-31T12:11:26;18.40;;;13.30;;
63087;SDS011;49173;43.164;27.786;2023-03-31T12:14:12;15.65;;;11.32;;
63087;SDS011;49173;43.164;27.786;2023-03-31T12:16:52;16.30;;;10.57;;
63087;SDS011;49173;43.164;27.786;2023-03-31T12:22:30;16.95;;;10.98;;
63087;SDS011;49173;43.164;27.786;2023-03-31T12:25:02;16.27;;;12.82;;
63087;SDS011;49173;43.164;27.786;2023-03-31T12:27:39;20.63;;;12.05;;
63087;SDS011;49173;43.164;27.786;2023-03-31T12:30:15;18.87;;;12.97;;
63087;SDS011;49173;43.164;27.786;2023-03-31T12:32:54;16.48;;;11.63;;
63087;SDS011;49173;43.164;27.786;2023-03-31T12:35:28;21.13;;;15.70;;
63087;SDS011;49173;43.164;27.786;2023-03-31T12:38:20;21.77;;;14.20;;
63087;SDS011;49173;43.164;27.786;2023-03-31T12:41:27;18.45;;;12.40;;
63087;SDS011;49173;43.164;27.786;2023-03-31T12:52:41;19.95;;;10.85;;
63087;SDS011;49173;43.164;27.786;2023-03-31T13:03:43;14.70;;;9.45;;
63087;SDS011;49173;43.164;27.786;2023-03-31T13:11:44;14.00;;;9.18;;
63087;SDS011;49173;43.164;27.786;2023-03-31T13:17:28;12.80;;;8.88;;
63087;SDS011;49173;43.164;27.786;2023-03-31T13:23:06;12.55;;;9.02;;
63087;SDS011;49173;43.164;27.786;2023-03-31T13:25:48;12.32;;;9.02;;
63087;SDS011;49173;43.164;27.786;2023-03-31T13:30:55;15.88;;;10.77;;
63087;SDS011;49173;43.164;27.786;2023-03-31T13:33:26;17.55;;;11.60;;
63087;SDS011;49173;43.164;27.786;2023-03-31T13:53:07;17.30;;;11.27;;
63087;SDS011;49173;43.164;27.786;2023-03-31T14:02:03;16.10;;;9.93;;
63087;SDS011;49173;43.164;27.786;2023-03-31T14:04:59;18.65;;;10.00;;
63087;SDS011;49173;43.164;27.786;2023-03-31T14:07:58;19.33;;;11.30;;
63087;SDS011;49173;43.164;27.786;2023-03-31T14:10:32;15.63;;;11.80;;
63087;SDS011;49173;43.164;27.786;2023-03-31T14:18:14;21.92;;;13.15;;
63087;SDS011;49173;43.164;27.786;2023-03-31T14:23:46;25.33;;;16.83;;
63087;SDS011;49173;43.164;27.786;2023-03-31T14:29:34;23.65;;;15.68;;
63087;SDS011;49173;43.164;27.786;2023-03-31T14:33:07;15.48;;;9.65;;
63087;SDS011;49173;43.164;27.786;2023-03-31T14:35:40;7.95;;;6.35;;
63087;SDS011;49173;43.164;27.786;2023-03-31T14:38:17;15.10;;;7.82;;
63087;SDS011;49173;43.164;27.786;2023-03-31T14:40:47;18.50;;;11.40;;
63087;SDS011;49173;43.164;27.786;2023-03-31T14:43:17;15.15;;;9.98;;
63087;SDS011;49173;43.164;27.786;2023-03-31T14:45:56;9.85;;;7.45;;
63087;SDS011;49173;43.164;27.786;2023-03-31T14:48:26;13.20;;;8.15;;
63087;SDS011;49173;43.164;27.786;2023-03-31T14:50:57;12.93;;;8.68;;
63087;SDS011;49173;43.164;27.786;2023-03-31T14:53:34;9.15;;;5.45;;
63087;SDS011;49173;43.164;27.786;2023-03-31T14:56:08;10.65;;;5.78;;
63087;SDS011;49173;43.164;27.786;2023-03-31T14:58:46;12.60;;;7.95;;
63087;SDS011;49173;43.164;27.786;2023-03-31T15:01:18;9.27;;;6.47;;
63087;SDS011;49173;43.164;27.786;2023-03-31T15:03:50;13.43;;;8.25;;
63087;SDS011;49173;43.164;27.786;2023-03-31T15:06:22;11.43;;;8.30;;
63087;SDS011;49173;43.164;27.786;2023-03-31T15:08:51;10.63;;;6.85;;
63087;SDS011;49173;43.164;27.786;2023-03-31T15:11:20;11.20;;;7.07;;
63087;SDS011;49173;43.164;27.786;2023-03-31T15:13:48;12.07;;;6.72;;
63087;SDS011;49173;43.164;27.786;2023-03-31T15:18:59;8.82;;;6.22;;
63087;SDS011;49173;43.164;27.786;2023-03-31T15:21:35;19.25;;;12.40;;
63087;SDS011;49173;43.164;27.786;2023-03-31T15:24:03;20.33;;;13.02;;
63087;SDS011;49173;43.164;27.786;2023-03-31T15:26:46;15.95;;;11.27;;
63087;SDS011;49173;43.164;27.786;2023-03-31T15:29:32;14.77;;;9.88;;
63087;SDS011;49173;43.164;27.786;2023-03-31T15:32:00;14.38;;;8.80;;
63087;SDS011;49173;43.164;27.786;2023-03-31T15:34:31;18.77;;;12.25;;
63087;SDS011;49173;43.164;27.786;2023-03-31T15:37:00;27.30;;;14.45;;
63087;SDS011;49173;43.164;27.786;2023-03-31T15:39:35;25.98;;;13.32;;
63087;SDS011;49173;43.164;27.786;2023-03-31T15:42:09;19.52;;;11.88;;
63087;SDS011;49173;43.164;27.786;2023-03-31T15:44:43;17.33;;;9.63;;
63087;SDS011;49173;43.164;27.786;2023-03-31T15:47:12;11.98;;;8.50;;
63087;SDS011;49173;43.164;27.786;2023-03-31T15:49:52;14.30;;;11.07;;
63087;SDS011;49173;43.164;27.786;2023-03-31T15:52:30;15.88;;;10.13;;
63087;SDS011;49173;43.164;27.786;2023-03-31T15:55:04;16.25;;;11.07;;
63087;SDS011;49173;43.164;27.786;2023-03-31T15:57:51;19.58;;;11.63;;
63087;SDS011;49173;43.164;27.786;2023-03-31T16:02:59;14.70;;;8.57;;
63087;SDS011;49173;43.164;27.786;2023-03-31T16:05:36;14.77;;;9.05;;
63087;SDS011;49173;43.164;27.786;2023-03-31T16:08:17;12.82;;;10.80;;
63087;SDS011;49173;43.164;27.786;2023-03-31T16:10:58;12.98;;;8.23;;
63087;SDS011;49173;43.164;27.786;2023-03-31T16:13:29;11.15;;;7.70;;
63087;SDS011;49173;43.164;27.786;2023-03-31T16:15:57;22.45;;;13.20;;
63087;SDS011;49173;43.164;27.786;2023-03-31T16:18:29;22.40;;;12.70;;
63087;SDS011;49173;43.164;27.786;2023-03-31T16:21:04;20.50;;;13.35;;
63087;SDS011;49173;43.164;27.786;2023-03-31T16:23:34;24.40;;;15.82;;
63087;SDS011;49173;43.164;27.786;2023-03-31T16:26:05;39.30;;;26.33;;
63087;SDS011;49173;43.164;27.786;2023-03-31T16:28:35;43.13;;;29.38;;
63087;SDS011;49173;43.164;27.786;2023-03-31T16:31:04;29.25;;;17.52;;
63087;SDS011;49173;43.164;27.786;2023-03-31T16:33:55;69.75;;;37.05;;
63087;SDS011;49173;43.164;27.786;2023-03-31T16:36:23;82.60;;;39.05;;
63087;SDS011;49173;43.164;27.786;2023-03-31T16:38:55;133.98;;;55.40;;
63087;SDS011;49173;43.164;27.786;2023-03-31T16:41:23;78.22;;;35.35;;
63087;SDS011;49173;43.164;27.786;2023-03-31T16:43:52;70.43;;;33.90;;
63087;SDS011;49173;43.164;27.786;2023-03-31T16:46:19;38.78;;;20.77;;
63087;SDS011;49173;43.164;27.786;2023-03-31T16:48:49;22.70;;;15.40;;
63087;SDS011;49173;43.164;27.786;2023-03-31T16:51:16;22.92;;;13.90;;
63087;SDS011;49173;43.164;27.786;2023-03-31T16:53:44;39.70;;;23.63;;
63087;SDS011;49173;43.164;27.786;2023-03-31T16:56:11;39.20;;;22.25;;
63087;SDS011;49173;43.164;27.786;2023-03-31T16:58:38;50.25;;;27.52;;
63087;SDS011;49173;43.164;27.786;2023-03-31T17:01:05;43.53;;;24.65;;
63087;SDS011;49173;43.164;27.786;2023-03-31T17:03:33;39.70;;;28.92;;
63087;SDS011;49173;43.164;27.786;2023-03-31T17:06:05;23.33;;;15.45;;
63087;SDS011;49173;43.164;27.786;2023-03-31T17:08:37;23.23;;;17.70;;
63087;SDS011;49173;43.164;27.786;2023-03-31T17:11:05;21.85;;;15.80;;
63087;SDS011;49173;43.164;27.786;2023-03-31T17:13:36;15.43;;;11.50;;
63087;SDS011;49173;43.164;27.786;2023-03-31T17:16:03;13.20;;;8.93;;
63087;SDS011;49173;43.164;27.786;2023-03-31T17:18:32;9.67;;;8.07;;
63087;SDS011;49173;43.164;27.786;2023-03-31T17:21:06;9.82;;;7.40;;
63087;SDS011;49173;43.164;27.786;2023-03-31T17:23:35;12.02;;;7.80;;
63087;SDS011;49173;43.164;27.786;2023-03-31T17:26:06;14.98;;;8.70;;
63087;SDS011;49173;43.164;27.786;2023-03-31T17:28:38;11.18;;;7.95;;
63087;SDS011;49173;43.164;27.786;2023-03-31T17:31:12;12.15;;;9.23;;
63087;SDS011;49173;43.164;27.786;2023-03-31T17:33:41;12.93;;;9.85;;
63087;SDS011;49173;43.164;27.786;2023-03-31T17:36:09;19.27;;;14.93;;
63087;SDS011;49173;43.164;27.786;2023-03-31T17:38:36;13.63;;;10.70;;
63087;SDS011;49173;43.164;27.786;2023-03-31T17:41:04;10.70;;;8.50;;
63087;SDS011;49173;43.164;27.786;2023-03-31T17:43:35;13.70;;;6.95;;
63087;SDS011;49173;43.164;27.786;2023-03-31T17:46:03;11.13;;;7.63;;